Skip Navigation LinksHome page > Weather > Current weather Skip Navigation Links

Current Weather

Lewis University, Romeoville, Ill.

For information only: do not use for flight planning or navigation.
Latest weather
Observation time Wednesday, December 8, 2021 10:15 AM CST
Local time Wednesday, December 8, 2021 10:44 AM CST
Flight conditions Visual Meteorological Conditions
Winds
Wind direction West-Northwest (300°)
Wind speed 10 mph
Visibility 10 mi.
Sky condition
Ceiling unlimited
Cloud layer scattered clouds 1,900 ft.
Temperature 30°F
Dewpoint 22°F
Altimeter 29.97 in.Hg
Derived measurements
Relative humidity 73%
Wind chill 21°F
Density altitude -1304 ft.
Remarks
Fully automated report.
Automated weather observing station with precipitation discriminator.
METAR KLOT 081615Z AUTO 30009KT 10SM SCT019 M01/M05 A2997 RMK AO2 T10121055

Settings

Location code

InnerDrive.Weather 4.0.6770.0 Release CLR 4.0.30319.42000
Copyright ©2018 Inner Drive Technology. All rights reserved. Portions Copyright ©1986-2018 David Braverman.

Find weather

Site navigation


Skip Navigation Links

Place info

Page info

PayPal - The safer, easier way to pay online!

Return home.

Copyright ©2021 Inner Drive Technology. Purveyors of fine, hand-crafted computer software. Page printed 2021-12-08T16:44:35 UTC.